sensor_id;sensor_type;location;lat;lon;timestamp;pressure;altitude;pressure_sealevel;temperature;humidity
17785;BME280;9016;53.582;10.062;2022-11-21T00:02:04;100477.34;;;2.64;82.10
17785;BME280;9016;53.582;10.062;2022-11-21T00:04:32;100472.25;;;2.60;82.18
17785;BME280;9016;53.582;10.062;2022-11-21T00:07:00;100473.31;;;2.54;82.38
17785;BME280;9016;53.582;10.062;2022-11-21T00:09:28;100470.31;;;2.65;82.23
17785;BME280;9016;53.582;10.062;2022-11-21T00:11:59;100471.84;;;2.72;81.81
17785;BME280;9016;53.582;10.062;2022-11-21T00:14:27;100475.41;;;2.71;81.51
17785;BME280;9016;53.582;10.062;2022-11-21T00:16:55;100470.97;;;2.71;80.85
17785;BME280;9016;53.582;10.062;2022-11-21T00:19:24;100468.22;;;2.76;80.91
17785;BME280;9016;53.582;10.062;2022-11-21T00:21:52;100458.69;;;2.72;80.56
17785;BME280;9016;53.582;10.062;2022-11-21T00:24:20;100466.34;;;2.79;81.72
17785;BME280;9016;53.582;10.062;2022-11-21T00:26:48;100469.66;;;2.84;80.66
17785;BME280;9016;53.582;10.062;2022-11-21T00:29:16;100459.06;;;2.87;81.17
17785;BME280;9016;53.582;10.062;2022-11-21T00:31:44;100458.13;;;2.88;80.57
17785;BME280;9016;53.582;10.062;2022-11-21T00:34:12;100457.25;;;2.88;80.18
17785;BME280;9016;53.582;10.062;2022-11-21T00:36:43;100460.97;;;2.82;80.80
17785;BME280;9016;53.582;10.062;2022-11-21T00:39:11;100459.38;;;2.78;80.88
17785;BME280;9016;53.582;10.062;2022-11-21T00:41:39;100454.09;;;2.78;81.24
17785;BME280;9016;53.582;10.062;2022-11-21T00:44:07;100455.88;;;2.78;81.21
17785;BME280;9016;53.582;10.062;2022-11-21T00:46:38;100448.06;;;2.75;80.98
17785;BME280;9016;53.582;10.062;2022-11-21T00:49:06;100442.84;;;2.73;81.17
17785;BME280;9016;53.582;10.062;2022-11-21T00:51:34;100439.38;;;2.73;80.64
17785;BME280;9016;53.582;10.062;2022-11-21T00:54:03;100441.09;;;2.74;81.02
17785;BME280;9016;53.582;10.062;2022-11-21T00:56:31;100439.47;;;2.70;80.98
17785;BME280;9016;53.582;10.062;2022-11-21T00:58:59;100431.69;;;2.67;80.84
17785;BME280;9016;53.582;10.062;2022-11-21T01:01:27;100436.13;;;2.65;81.36
17785;BME280;9016;53.582;10.062;2022-11-21T01:03:56;100431.06;;;2.59;81.15
17785;BME280;9016;53.582;10.062;2022-11-21T01:06:24;100435.28;;;2.64;81.07
17785;BME280;9016;53.582;10.062;2022-11-21T01:08:52;100433.50;;;2.65;81.08
17785;BME280;9016;53.582;10.062;2022-11-21T01:11:21;100433.44;;;2.66;81.22
17785;BME280;9016;53.582;10.062;2022-11-21T01:13:52;100435.28;;;2.64;80.44
17785;BME280;9016;53.582;10.062;2022-11-21T01:16:22;100433.75;;;2.57;81.29
17785;BME280;9016;53.582;10.062;2022-11-21T01:18:50;100435.44;;;2.60;81.24
17785;BME280;9016;53.582;10.062;2022-11-21T01:21:20;100438.09;;;2.58;81.49
17785;BME280;9016;53.582;10.062;2022-11-21T01:23:49;100440.53;;;2.64;81.09
17785;BME280;9016;53.582;10.062;2022-11-21T01:26:18;100438.78;;;2.65;80.67
17785;BME280;9016;53.582;10.062;2022-11-21T01:28:49;100430.81;;;2.66;80.31
17785;BME280;9016;53.582;10.062;2022-11-21T01:31:18;100436.03;;;2.68;80.09
17785;BME280;9016;53.582;10.062;2022-11-21T01:33:47;100435.22;;;2.66;79.24
17785;BME280;9016;53.582;10.062;2022-11-21T01:36:17;100438.59;;;2.69;79.34
17785;BME280;9016;53.582;10.062;2022-11-21T01:38:46;100442.22;;;2.67;80.09
17785;BME280;9016;53.582;10.062;2022-11-21T01:41:19;100443.09;;;2.66;79.76
17785;BME280;9016;53.582;10.062;2022-11-21T01:43:49;100441.34;;;2.66;79.75
17785;BME280;9016;53.582;10.062;2022-11-21T01:46:18;100443.03;;;2.69;78.70
17785;BME280;9016;53.582;10.062;2022-11-21T01:48:49;100442.84;;;2.73;78.32
17785;BME280;9016;53.582;10.062;2022-11-21T01:51:24;100441.16;;;2.72;78.33
17785;BME280;9016;53.582;10.062;2022-11-21T01:53:57;100447.41;;;2.68;77.54
17785;BME280;9016;53.582;10.062;2022-11-21T01:56:39;100445.59;;;2.70;77.39
17785;BME280;9016;53.582;10.062;2022-11-21T01:59:14;100449.28;;;2.65;75.55
17785;BME280;9016;53.582;10.062;2022-11-21T02:01:45;100445.72;;;2.67;77.10
17785;BME280;9016;53.582;10.062;2022-11-21T02:04:14;100446.50;;;2.69;76.87
17785;BME280;9016;53.582;10.062;2022-11-21T02:06:42;100451.81;;;2.68;75.81
17785;BME280;9016;53.582;10.062;2022-11-21T02:09:11;100451.03;;;2.64;76.50
17785;BME280;9016;53.582;10.062;2022-11-21T02:11:42;100450.84;;;2.70;76.42
17785;BME280;9016;53.582;10.062;2022-11-21T02:14:14;100457.22;;;2.63;76.15
17785;BME280;9016;53.582;10.062;2022-11-21T02:16:43;100445.97;;;2.58;76.32
17785;BME280;9016;53.582;10.062;2022-11-21T02:19:18;100452.09;;;2.59;75.81
17785;BME280;9016;53.582;10.062;2022-11-21T02:21:53;100452.97;;;2.59;75.83
17785;BME280;9016;53.582;10.062;2022-11-21T02:24:27;100451.34;;;2.55;75.85
17785;BME280;9016;53.582;10.062;2022-11-21T02:26:58;100445.97;;;2.60;75.91
17785;BME280;9016;53.582;10.062;2022-11-21T02:29:27;100446.72;;;2.63;75.58
17785;BME280;9016;53.582;10.062;2022-11-21T02:31:58;100443.06;;;2.67;75.02
17785;BME280;9016;53.582;10.062;2022-11-21T02:34:26;100436.03;;;2.68;74.88
17785;BME280;9016;53.582;10.062;2022-11-21T02:36:55;100440.94;;;2.78;74.81
17785;BME280;9016;53.582;10.062;2022-11-21T02:39:28;100442.78;;;2.75;73.50
17785;BME280;9016;53.582;10.062;2022-11-21T02:42:03;100443.84;;;2.69;74.65
17785;BME280;9016;53.582;10.062;2022-11-21T02:44:42;100441.34;;;2.66;74.49
17785;BME280;9016;53.582;10.062;2022-11-21T02:47:13;100442.34;;;2.62;74.04
17785;BME280;9016;53.582;10.062;2022-11-21T02:49:46;100448.59;;;2.58;74.15
17785;BME280;9016;53.582;10.062;2022-11-21T02:52:17;100451.34;;;2.55;74.22
17785;BME280;9016;53.582;10.062;2022-11-21T02:54:48;100442.59;;;2.55;73.33
17785;BME280;9016;53.582;10.062;2022-11-21T02:57:18;100435.63;;;2.54;73.90
17785;BME280;9016;53.582;10.062;2022-11-21T02:59:46;100435.75;;;2.51;73.53
17785;BME280;9016;53.582;10.062;2022-11-21T03:02:14;100434.88;;;2.50;73.13
17785;BME280;9016;53.582;10.062;2022-11-21T03:04:42;100434.16;;;2.45;73.02
17785;BME280;9016;53.582;10.062;2022-11-21T03:07:10;100428.03;;;2.45;73.37
17785;BME280;9016;53.582;10.062;2022-11-21T03:09:39;100428.84;;;2.47;72.77
17785;BME280;9016;53.582;10.062;2022-11-21T03:12:08;100431.66;;;2.41;73.12
17785;BME280;9016;53.582;10.062;2022-11-21T03:14:37;100426.66;;;2.33;73.95
17785;BME280;9016;53.582;10.062;2022-11-21T03:17:07;100424.91;;;2.34;73.42
17785;BME280;9016;53.582;10.062;2022-11-21T03:19:35;100416.84;;;2.38;73.69
17785;BME280;9016;53.582;10.062;2022-11-21T03:22:03;100418.72;;;2.35;73.03
17785;BME280;9016;53.582;10.062;2022-11-21T03:24:31;100410.13;;;2.30;73.19
17785;BME280;9016;53.582;10.062;2022-11-21T03:26:59;100410.13;;;2.30;73.71
17785;BME280;9016;53.582;10.062;2022-11-21T03:29:27;100405.78;;;2.29;74.52
17785;BME280;9016;53.582;10.062;2022-11-21T03:31:57;100401.53;;;2.25;73.22
17785;BME280;9016;53.582;10.062;2022-11-21T03:34:25;100408.44;;;2.27;74.61
17785;BME280;9016;53.582;10.062;2022-11-21T03:36:53;100413.69;;;2.27;73.85
17785;BME280;9016;53.582;10.062;2022-11-21T03:39:23;100406.97;;;2.19;74.53
17785;BME280;9016;53.582;10.062;2022-11-21T03:41:51;100406.56;;;2.31;74.90
17785;BME280;9016;53.582;10.062;2022-11-21T03:44:19;100408.25;;;2.33;74.38
17785;BME280;9016;53.582;10.062;2022-11-21T03:46:47;100419.59;;;2.35;74.32
17785;BME280;9016;53.582;10.062;2022-11-21T03:49:17;100412.56;;;2.36;73.98
17785;BME280;9016;53.582;10.062;2022-11-21T03:51:45;100409.88;;;2.37;74.32
17785;BME280;9016;53.582;10.062;2022-11-21T03:54:13;100417.56;;;2.43;74.09
17785;BME280;9016;53.582;10.062;2022-11-21T03:56:42;100407.13;;;2.40;74.53
17785;BME280;9016;53.582;10.062;2022-11-21T03:59:10;100415.03;;;2.40;74.38
17785;BME280;9016;53.582;10.062;2022-11-21T04:01:37;100421.16;;;2.41;74.36
17785;BME280;9016;53.582;10.062;2022-11-21T04:04:06;100409.63;;;2.45;74.34
17785;BME280;9016;53.582;10.062;2022-11-21T04:06:35;100412.31;;;2.43;74.36
17785;BME280;9016;53.582;10.062;2022-11-21T04:09:03;100412.31;;;2.43;74.29
17785;BME280;9016;53.582;10.062;2022-11-21T04:11:31;100411.41;;;2.44;74.67
17785;BME280;9016;53.582;10.062;2022-11-21T04:13:59;100417.72;;;2.39;73.78
17785;BME280;9016;53.582;10.062;2022-11-21T04:16:27;100430.03;;;2.37;74.06
17785;BME280;9016;53.582;10.062;2022-11-21T04:18:55;100419.63;;;2.34;74.20
17785;BME280;9016;53.582;10.062;2022-11-21T04:21:23;100432.09;;;2.27;74.97
17785;BME280;9016;53.582;10.062;2022-11-21T04:23:52;100434.94;;;2.21;75.47
17785;BME280;9016;53.582;10.062;2022-11-21T04:26:20;100434.94;;;2.21;75.80
17785;BME280;9016;53.582;10.062;2022-11-21T04:28:48;100432.25;;;2.23;76.55
17785;BME280;9016;53.582;10.062;2022-11-21T04:31:17;100427.88;;;2.22;76.51
17785;BME280;9016;53.582;10.062;2022-11-21T04:33:45;100428.81;;;2.21;76.14
17785;BME280;9016;53.582;10.062;2022-11-21T04:36:13;100432.34;;;2.20;76.25
17785;BME280;9016;53.582;10.062;2022-11-21T04:38:41;100433.38;;;2.16;76.59
17785;BME280;9016;53.582;10.062;2022-11-21T04:41:12;100441.31;;;2.13;76.06
17785;BME280;9016;53.582;10.062;2022-11-21T04:43:40;100433.50;;;2.11;77.21
17785;BME280;9016;53.582;10.062;2022-11-21T04:46:09;100439.66;;;2.10;77.64
17785;BME280;9016;53.582;10.062;2022-11-21T04:48:37;100440.56;;;2.09;77.48
17785;BME280;9016;53.582;10.062;2022-11-21T04:51:05;100446.78;;;2.07;77.67
17785;BME280;9016;53.582;10.062;2022-11-21T04:53:33;100438.94;;;2.05;77.16
17785;BME280;9016;53.582;10.062;2022-11-21T04:56:08;100437.41;;;1.98;77.19
17785;BME280;9016;53.582;10.062;2022-11-21T04:58:37;100437.72;;;1.87;77.79
17785;BME280;9016;53.582;10.062;2022-11-21T05:01:06;100431.78;;;1.81;77.56
17785;BME280;9016;53.582;10.062;2022-11-21T05:03:34;100444.91;;;1.81;78.05
17785;BME280;9016;53.582;10.062;2022-11-21T05:06:03;100435.38;;;1.78;78.58
17785;BME280;9016;53.582;10.062;2022-11-21T05:08:31;100434.50;;;1.78;78.77
17785;BME280;9016;53.582;10.062;2022-11-21T05:10:59;100444.91;;;1.81;78.09
17785;BME280;9016;53.582;10.062;2022-11-21T05:13:46;100440.63;;;1.78;78.63
17785;BME280;9016;53.582;10.062;2022-11-21T05:16:14;100440.63;;;1.78;79.08
17785;BME280;9016;53.582;10.062;2022-11-21T05:18:41;100438.13;;;1.74;78.66
17785;BME280;9016;53.582;10.062;2022-11-21T05:21:10;100436.38;;;1.74;78.91
17785;BME280;9016;53.582;10.062;2022-11-21T05:23:38;100441.66;;;1.73;79.15
17785;BME280;9016;53.582;10.062;2022-11-21T05:26:06;100439.09;;;1.71;79.38
17785;BME280;9016;53.582;10.062;2022-11-21T05:28:34;100443.53;;;1.68;79.60
17785;BME280;9016;53.582;10.062;2022-11-21T05:31:03;100442.59;;;1.70;79.34
17785;BME280;9016;53.582;10.062;2022-11-21T05:33:32;100444.28;;;1.73;79.85
17785;BME280;9016;53.582;10.062;2022-11-21T05:36:00;100444.34;;;1.70;79.98
17785;BME280;9016;53.582;10.062;2022-11-21T05:38:27;100446.16;;;1.69;80.22
17785;BME280;9016;53.582;10.062;2022-11-21T05:40:55;100440.84;;;1.71;80.27
17785;BME280;9016;53.582;10.062;2022-11-21T05:43:23;100435.44;;;1.77;79.98
17785;BME280;9016;53.582;10.062;2022-11-21T05:46:13;100437.44;;;1.67;80.31
17785;BME280;9016;53.582;10.062;2022-11-21T05:48:42;100435.66;;;1.69;80.87
17785;BME280;9016;53.582;10.062;2022-11-21T05:51:10;100424.31;;;1.67;80.21
17785;BME280;9016;53.582;10.062;2022-11-21T05:53:39;100438.53;;;1.60;80.56
17785;BME280;9016;53.582;10.062;2022-11-21T05:56:09;100434.06;;;1.62;81.13
17785;BME280;9016;53.582;10.062;2022-11-21T05:58:37;100442.94;;;1.60;81.15
17785;BME280;9016;53.582;10.062;2022-11-21T06:01:06;100436.69;;;1.62;81.34
17785;BME280;9016;53.582;10.062;2022-11-21T06:03:37;100438.59;;;1.57;81.36
17785;BME280;9016;53.582;10.062;2022-11-21T06:06:06;100444.00;;;1.53;81.42
17785;BME280;9016;53.582;10.062;2022-11-21T06:08:36;100437.13;;;1.49;81.67
17785;BME280;9016;53.582;10.062;2022-11-21T06:11:06;100437.22;;;1.44;81.93
17785;BME280;9016;53.582;10.062;2022-11-21T06:13:34;100431.91;;;1.47;82.33
17785;BME280;9016;53.582;10.062;2022-11-21T06:16:04;100441.50;;;1.48;82.09
17785;BME280;9016;53.582;10.062;2022-11-21T06:18:36;100440.47;;;1.54;81.49
17785;BME280;9016;53.582;10.062;2022-11-21T06:21:06;100437.03;;;1.52;81.07
17785;BME280;9016;53.582;10.062;2022-11-21T06:23:35;100433.34;;;1.57;81.11
17785;BME280;9016;53.582;10.062;2022-11-21T06:26:06;100433.34;;;1.57;81.50
17785;BME280;9016;53.582;10.062;2022-11-21T06:28:36;100428.00;;;1.62;80.69
17785;BME280;9016;53.582;10.062;2022-11-21T06:31:05;100431.22;;;1.70;81.12
17785;BME280;9016;53.582;10.062;2022-11-21T06:33:35;100434.78;;;1.69;80.12
17785;BME280;9016;53.582;10.062;2022-11-21T06:36:06;100433.19;;;1.63;80.34
17785;BME280;9016;53.582;10.062;2022-11-21T06:38:35;100431.34;;;1.67;80.30
17785;BME280;9016;53.582;10.062;2022-11-21T06:41:04;100424.09;;;1.75;80.04
17785;BME280;9016;53.582;10.062;2022-11-21T06:43:32;100442.53;;;1.73;79.41
17785;BME280;9016;53.582;10.062;2022-11-21T06:46:00;100444.34;;;1.70;79.27
17785;BME280;9016;53.582;10.062;2022-11-21T06:48:30;100441.94;;;1.64;79.40
17785;BME280;9016;53.582;10.062;2022-11-21T06:51:03;100444.47;;;1.67;79.78
17785;BME280;9016;53.582;10.062;2022-11-21T06:53:32;100439.16;;;1.68;80.17
17785;BME280;9016;53.582;10.062;2022-11-21T06:56:04;100443.91;;;1.56;80.16
17785;BME280;9016;53.582;10.062;2022-11-21T06:58:32;100442.97;;;1.58;80.84
17785;BME280;9016;53.582;10.062;2022-11-21T07:01:03;100443.75;;;1.62;80.88
17785;BME280;9016;53.582;10.062;2022-11-21T07:03:32;100444.69;;;1.59;81.20
17785;BME280;9016;53.582;10.062;2022-11-21T07:06:02;100449.97;;;1.58;80.63
17785;BME280;9016;53.582;10.062;2022-11-21T07:08:32;100450.88;;;1.57;81.05
17785;BME280;9016;53.582;10.062;2022-11-21T07:11:02;100445.59;;;1.58;80.92
17785;BME280;9016;53.582;10.062;2022-11-21T07:13:51;100450.88;;;1.57;80.98
17785;BME280;9016;53.582;10.062;2022-11-21T07:16:19;100445.72;;;1.54;81.10
17785;BME280;9016;53.582;10.062;2022-11-21T07:18:47;100437.13;;;1.49;81.49
17785;BME280;9016;53.582;10.062;2022-11-21T07:21:16;100433.78;;;1.42;80.55
17785;BME280;9016;53.582;10.062;2022-11-21T07:23:44;100438.97;;;1.45;81.79
17785;BME280;9016;53.582;10.062;2022-11-21T07:26:17;100440.63;;;1.48;81.27
17785;BME280;9016;53.582;10.062;2022-11-21T07:28:47;100440.00;;;1.40;81.00
17785;BME280;9016;53.582;10.062;2022-11-21T07:31:16;100434.66;;;1.43;81.01
17785;BME280;9016;53.582;10.062;2022-11-21T07:33:44;100438.16;;;1.43;80.97
17785;BME280;9016;53.582;10.062;2022-11-21T07:36:13;100436.34;;;1.45;81.09
17785;BME280;9016;53.582;10.062;2022-11-21T07:38:46;100444.44;;;1.38;81.19
17785;BME280;9016;53.582;10.062;2022-11-21T07:41:14;100431.41;;;1.33;81.12
17785;BME280;9016;53.582;10.062;2022-11-21T07:43:42;100438.91;;;1.47;80.98
17785;BME280;9016;53.582;10.062;2022-11-21T07:46:10;100441.66;;;1.42;81.30
17785;BME280;9016;53.582;10.062;2022-11-21T07:48:38;100444.94;;;1.50;81.33
17785;BME280;9016;53.582;10.062;2022-11-21T07:51:06;100443.47;;;1.40;80.89
17785;BME280;9016;53.582;10.062;2022-11-21T07:53:34;100443.44;;;1.42;80.86
17785;BME280;9016;53.582;10.062;2022-11-21T07:56:04;100440.81;;;1.42;80.85
17785;BME280;9016;53.582;10.062;2022-11-21T07:58:38;100450.28;;;1.47;80.60
17785;BME280;9016;53.582;10.062;2022-11-21T08:01:06;100444.22;;;1.45;80.29
17785;BME280;9016;53.582;10.062;2022-11-21T08:03:34;100446.06;;;1.42;80.07
17785;BME280;9016;53.582;10.062;2022-11-21T08:06:03;100447.72;;;1.44;80.38
17785;BME280;9016;53.582;10.062;2022-11-21T08:08:33;100443.34;;;1.45;80.35
17785;BME280;9016;53.582;10.062;2022-11-21T08:11:04;100446.06;;;1.42;80.24
17785;BME280;9016;53.582;10.062;2022-11-21T08:13:33;100443.34;;;1.45;80.32
17785;BME280;9016;53.582;10.062;2022-11-21T08:16:02;100438.72;;;1.54;79.65
17785;BME280;9016;53.582;10.062;2022-11-21T08:18:30;100437.75;;;1.57;79.06
17785;BME280;9016;53.582;10.062;2022-11-21T08:21:00;100438.06;;;1.46;78.71
17785;BME280;9016;53.582;10.062;2022-11-21T08:23:28;100434.41;;;1.52;79.36
17785;BME280;9016;53.582;10.062;2022-11-21T08:25:56;100424.84;;;1.49;78.98
17785;BME280;9016;53.582;10.062;2022-11-21T08:28:26;100428.25;;;1.53;78.64
17785;BME280;9016;53.582;10.062;2022-11-21T08:30:55;100434.31;;;1.55;79.15
17785;BME280;9016;53.582;10.062;2022-11-21T08:33:23;100429.84;;;1.58;78.70
17785;BME280;9016;53.582;10.062;2022-11-21T08:35:51;100435.03;;;1.60;78.79
17785;BME280;9016;53.582;10.062;2022-11-21T08:38:19;100438.38;;;1.65;77.91
17785;BME280;9016;53.582;10.062;2022-11-21T08:40:48;100428.66;;;1.68;77.96
17785;BME280;9016;53.582;10.062;2022-11-21T08:43:44;100434.19;;;1.59;77.24
17785;BME280;9016;53.582;10.062;2022-11-21T08:46:13;100421.81;;;1.63;78.33
17785;BME280;9016;53.582;10.062;2022-11-21T08:48:41;100425.38;;;1.62;77.84
17785;BME280;9016;53.582;10.062;2022-11-21T08:51:09;100428.59;;;1.71;77.52
17785;BME280;9016;53.582;10.062;2022-11-21T08:53:37;100420.72;;;1.70;77.50
17785;BME280;9016;53.582;10.062;2022-11-21T08:56:06;100417.94;;;1.76;77.47
17785;BME280;9016;53.582;10.062;2022-11-21T08:58:34;100418.69;;;1.79;78.03
17785;BME280;9016;53.582;10.062;2022-11-21T09:01:04;100421.19;;;1.84;77.84
17785;BME280;9016;53.582;10.062;2022-11-21T09:03:32;100425.94;;;2.00;77.07
17785;BME280;9016;53.582;10.062;2022-11-21T09:06:00;100426.06;;;1.96;76.51
17785;BME280;9016;53.582;10.062;2022-11-21T09:08:29;100419.72;;;1.74;77.51
17785;BME280;9016;53.582;10.062;2022-11-21T09:10:57;100421.31;;;1.79;77.46
17785;BME280;9016;53.582;10.062;2022-11-21T09:13:26;100424.59;;;1.87;76.81
17785;BME280;9016;53.582;10.062;2022-11-21T09:15:54;100420.88;;;1.94;76.79
17785;BME280;9016;53.582;10.062;2022-11-21T09:18:47;100419.16;;;1.93;77.15
17785;BME280;9016;53.582;10.062;2022-11-21T09:21:18;100426.28;;;1.90;77.88
17785;BME280;9016;53.582;10.062;2022-11-21T09:23:47;100437.50;;;1.95;77.88
17785;BME280;9016;53.582;10.062;2022-11-21T09:26:15;100432.06;;;2.01;77.52
17785;BME280;9016;53.582;10.062;2022-11-21T09:28:42;100439.31;;;1.93;77.53
17785;BME280;9016;53.582;10.062;2022-11-21T09:31:12;100433.19;;;2.20;77.72
17785;BME280;9016;53.582;10.062;2022-11-21T09:33:40;100427.88;;;2.49;77.19
17785;BME280;9016;53.582;10.062;2022-11-21T09:36:09;100432.56;;;2.67;75.92
17785;BME280;9016;53.582;10.062;2022-11-21T09:38:37;100427.94;;;2.74;75.41
17785;BME280;9016;53.582;10.062;2022-11-21T09:41:14;100435.41;;;2.86;74.55
17785;BME280;9016;53.582;10.062;2022-11-21T09:44:04;100439.50;;;2.94;74.19
17785;BME280;9016;53.582;10.062;2022-11-21T09:46:42;100438.28;;;3.04;73.47
17785;BME280;9016;53.582;10.062;2022-11-21T09:49:13;100436.84;;;3.21;72.89
17785;BME280;9016;53.582;10.062;2022-11-21T09:51:44;100438.16;;;3.32;73.13
17785;BME280;9016;53.582;10.062;2022-11-21T09:54:17;100434.03;;;3.25;72.47
17785;BME280;9016;53.582;10.062;2022-11-21T09:56:47;100422.94;;;3.17;73.06
17785;BME280;9016;53.582;10.062;2022-11-21T09:59:28;100434.09;;;3.24;73.19
17785;BME280;9016;53.582;10.062;2022-11-21T10:01:59;100434.31;;;3.18;72.47
17785;BME280;9016;53.582;10.062;2022-11-21T10:04:28;100432.16;;;3.29;73.37
17785;BME280;9016;53.582;10.062;2022-11-21T10:07:04;100433.16;;;3.25;72.96
17785;BME280;9016;53.582;10.062;2022-11-21T10:09:46;100427.41;;;3.14;73.32
17785;BME280;9016;53.582;10.062;2022-11-21T10:12:26;100423.72;;;3.19;73.26
17785;BME280;9016;53.582;10.062;2022-11-21T10:15:14;100425.66;;;3.14;73.43
17785;BME280;9016;53.582;10.062;2022-11-21T10:17:56;100423.94;;;3.13;73.93
17785;BME280;9016;53.582;10.062;2022-11-21T10:20:37;100421.19;;;3.16;74.35
17785;BME280;9016;53.582;10.062;2022-11-21T10:26:26;100416.88;;;3.15;73.42
17785;BME280;9016;53.582;10.062;2022-11-21T10:29:03;100421.94;;;3.20;74.54
17785;BME280;9016;53.582;10.062;2022-11-21T10:31:37;100421.09;;;3.19;75.17
17785;BME280;9016;53.582;10.062;2022-11-21T10:34:09;100413.66;;;3.30;75.29
17785;BME280;9016;53.582;10.062;2022-11-21T10:36:40;100415.06;;;3.40;74.25
17785;BME280;9016;53.582;10.062;2022-11-21T10:39:17;100409.66;;;3.43;72.93
17785;BME280;9016;53.582;10.062;2022-11-21T10:41:50;100406.00;;;3.47;73.85
17785;BME280;9016;53.582;10.062;2022-11-21T10:44:24;100404.13;;;3.51;72.47
17785;BME280;9016;53.582;10.062;2022-11-21T10:47:15;100404.50;;;3.65;72.76
17785;BME280;9016;53.582;10.062;2022-11-21T10:49:59;100396.06;;;3.55;71.99
17785;BME280;9016;53.582;10.062;2022-11-21T10:52:33;100401.00;;;3.64;72.30
17785;BME280;9016;53.582;10.062;2022-11-21T10:55:09;100397.41;;;3.67;73.39
17785;BME280;9016;53.582;10.062;2022-11-21T10:57:40;100389.25;;;3.73;71.00
17785;BME280;9016;53.582;10.062;2022-11-21T11:00:19;100389.31;;;3.71;69.89
17785;BME280;9016;53.582;10.062;2022-11-21T11:03:01;100383.59;;;3.83;69.73
17785;BME280;9016;53.582;10.062;2022-11-21T11:05:33;100385.22;;;3.86;70.15
17785;BME280;9016;53.582;10.062;2022-11-21T11:08:04;100381.38;;;3.94;69.59
17785;BME280;9016;53.582;10.062;2022-11-21T11:10:35;100383.22;;;3.92;69.14
17785;BME280;9016;53.582;10.062;2022-11-21T11:13:11;100389.66;;;3.85;69.46
17785;BME280;9016;53.582;10.062;2022-11-21T11:16:16;100377.56;;;3.80;69.36
17785;BME280;9016;53.582;10.062;2022-11-21T11:18:47;100367.34;;;3.94;68.72
17785;BME280;9016;53.582;10.062;2022-11-21T11:21:20;100372.91;;;4.08;68.03
17785;BME280;9016;53.582;10.062;2022-11-21T11:23:49;100375.75;;;4.25;67.83
17785;BME280;9016;53.582;10.062;2022-11-21T11:26:32;100377.59;;;4.23;66.35
17785;BME280;9016;53.582;10.062;2022-11-21T11:29:08;100368.91;;;4.41;66.58
17785;BME280;9016;53.582;10.062;2022-11-21T11:31:39;100369.78;;;4.42;64.39
17785;BME280;9016;53.582;10.062;2022-11-21T11:34:11;100366.59;;;4.34;66.13
17785;BME280;9016;53.582;10.062;2022-11-21T11:37:03;100364.94;;;4.53;64.74
17785;BME280;9016;53.582;10.062;2022-11-21T11:39:38;100371.75;;;4.78;63.68
17785;BME280;9016;53.582;10.062;2022-11-21T11:42:18;100362.44;;;4.90;63.71
17785;BME280;9016;53.582;10.062;2022-11-21T11:45:15;100362.78;;;4.82;64.17
17785;BME280;9016;53.582;10.062;2022-11-21T11:48:07;100361.31;;;4.95;63.84
17785;BME280;9016;53.582;10.062;2022-11-21T11:50:39;100350.94;;;5.11;62.72
17785;BME280;9016;53.582;10.062;2022-11-21T11:53:10;100352.75;;;5.11;64.01
17785;BME280;9016;53.582;10.062;2022-11-21T11:55:44;100347.06;;;5.20;62.40
17785;BME280;9016;53.582;10.062;2022-11-21T11:58:20;100339.69;;;5.26;61.57
17785;BME280;9016;53.582;10.062;2022-11-21T12:00:57;100340.72;;;5.24;62.51
17785;BME280;9016;53.582;10.062;2022-11-21T12:03:35;100343.09;;;5.10;63.27
17785;BME280;9016;53.582;10.062;2022-11-21T12:06:11;100327.88;;;5.35;63.79
17785;BME280;9016;53.582;10.062;2022-11-21T12:08:47;100335.66;;;5.56;63.19
17785;BME280;9016;53.582;10.062;2022-11-21T12:11:35;100317.69;;;5.83;63.08
17785;BME280;9016;53.582;10.062;2022-11-21T12:14:48;100298.31;;;5.82;62.35
17785;BME280;9016;53.582;10.062;2022-11-21T12:17:40;100298.94;;;5.69;62.98
17785;BME280;9016;53.582;10.062;2022-11-21T12:20:16;100292.94;;;5.65;63.35
17785;BME280;9016;53.582;10.062;2022-11-21T12:22:48;100296.13;;;5.55;62.59
17785;BME280;9016;53.582;10.062;2022-11-21T12:25:22;100289.44;;;5.46;63.15
17785;BME280;9016;53.582;10.062;2022-11-21T12:27:53;100281.13;;;5.37;62.08
17785;BME280;9016;53.582;10.062;2022-11-21T12:30:41;100280.53;;;5.30;62.14
17785;BME280;9016;53.582;10.062;2022-11-21T12:33:18;100281.81;;;5.22;62.05
17785;BME280;9016;53.582;10.062;2022-11-21T12:36:00;100281.47;;;5.29;62.06
17785;BME280;9016;53.582;10.062;2022-11-21T12:39:07;100277.81;;;5.32;62.01
17785;BME280;9016;53.582;10.062;2022-11-21T12:41:46;100271.09;;;5.25;61.90
17785;BME280;9016;53.582;10.062;2022-11-21T12:44:47;100263.81;;;5.30;61.44
17785;BME280;9016;53.582;10.062;2022-11-21T12:47:32;100264.75;;;5.29;60.73
17785;BME280;9016;53.582;10.062;2022-11-21T12:50:25;100266.69;;;5.25;61.54
17785;BME280;9016;53.582;10.062;2022-11-21T12:53:21;100263.69;;;5.14;61.48
17785;BME280;9016;53.582;10.062;2022-11-21T12:56:16;100256.97;;;5.07;60.79
17785;BME280;9016;53.582;10.062;2022-11-21T12:58:50;100257.81;;;5.07;61.11
17785;BME280;9016;53.582;10.062;2022-11-21T13:01:26;100257.47;;;5.15;61.08
17785;BME280;9016;53.582;10.062;2022-11-21T13:04:00;100261.16;;;5.11;61.27
17785;BME280;9016;53.582;10.062;2022-11-21T13:06:33;100257.59;;;5.12;60.87
17785;BME280;9016;53.582;10.062;2022-11-21T13:09:07;100262.44;;;5.02;59.99
17785;BME280;9016;53.582;10.062;2022-11-21T13:11:43;100250.03;;;5.04;61.09
17785;BME280;9016;53.582;10.062;2022-11-21T13:14:34;100254.88;;;4.95;60.69
17785;BME280;9016;53.582;10.062;2022-11-21T13:17:19;100239.66;;;5.00;59.26
17785;BME280;9016;53.582;10.062;2022-11-21T13:19:53;100236.31;;;4.96;59.90
17785;BME280;9016;53.582;10.062;2022-11-21T13:22:49;100243.19;;;5.00;61.45
17785;BME280;9016;53.582;10.062;2022-11-21T13:25:37;100231.19;;;4.93;62.37
17785;BME280;9016;53.582;10.062;2022-11-21T13:28:36;100229.34;;;4.95;62.15
17785;BME280;9016;53.582;10.062;2022-11-21T13:31:29;100232.63;;;5.00;63.12